Sunday, November 19, 2017, 9:05 AM EST
Back to Local

KPBG, Plattsburgh International Airport

Location: Plattsburgh, NY, United States Lat: 44.65
Local Time: 9:05 AM EST (14:05 GMT) Lon: -73.467
Time Zone: US/Eastern Elev: 239 ft

Show me the last for .
Show Decoded

2017-11-19 08:53 METAR KPBG 191353Z AUTO 29009G14KT 260V320 9SM -RA BKN024 OVC029 06/04 A2908 RMK
                 AO2 PRESRR SLP849 P0002 T00610044 =
2017-11-19 08:32 METAR KPBG 191332Z AUTO 29005KT 4SM -RA BR FEW015 BKN022 OVC035 06/05 A2905 RMK
                 AO2 P0002 T00610050 =
2017-11-19 07:53 METAR KPBG 191253Z AUTO 29005KT 6SM -RA BR FEW042 BKN049 OVC060 05/04 A2902 RMK
                 AO2 RAB00 SLP828 P0005 T00500039 =
2017-11-19 06:53 METAR KPBG 191153Z AUTO 00000KT 9SM BKN055 OVC070 07/06 A2902 RMK AO2 RAE36
                 SLP829 P0001 60010 70022 T00670056 10067 20050 56022 =
2017-11-19 05:53 METAR KPBG 191053Z AUTO 18003KT 5SM RA BR FEW042 BKN065 OVC080 07/06 A2903 RMK
                 AO2 SLP833 P0007 T00670056 =
2017-11-19 04:53 METAR KPBG 190953Z AUTO 16008KT 9SM -RA SCT016 OVC041 07/05 A2907 RMK AO2 RAB34
                 SLP847 P0002 T00670050 =
2017-11-19 04:08 METAR KPBG 190908Z AUTO 16007KT 10SM BKN017 OVC085 07/04 A2908 RMK AO2 T00670044
                 =
2017-11-19 03:53 METAR KPBG 190853Z AUTO 15009KT 10SM FEW017 SCT060 OVC090 06/04 A2909 RMK AO2
                 SLP851 T00610044 58048 =
2017-11-19 02:53 METAR KPBG 190753Z AUTO 18008KT 10SM OVC049 06/04 A2914 RMK AO2 SLP869 T00610039
                 =
2017-11-19 02:03 METAR KPBG 190703Z AUTO 17008KT 10SM SCT018 OVC044 06/04 A2918 RMK AO2 T00560039
                 =
2017-11-19 01:53 METAR KPBG 190653Z AUTO 15008KT 10SM BKN018 OVC042 06/04 A2918 RMK AO2 SLP885
                 T00560039 =
2017-11-19 00:53 METAR KPBG 190553Z AUTO 15004KT 10SM BKN015 OVC039 05/03 A2923 RMK AO2 SLP899
                 60012 T00500033 10050 20033 56030 =
2017-11-19 00:50 METAR KPBG 190550Z AUTO 16004KT 10SM BKN015 OVC039 05/03 A2923 RMK AO2 =
2017-11-18 23:53 METAR KPBG 190453Z AUTO 15010KT 10SM OVC050 04/03 A2926 RMK AO2 RAB27E37 SLP909
                 P0000 T00440028 400501072 =
2017-11-18 23:03 METAR KPBG 190403Z AUTO 15013KT 10SM SCT022 BKN050 OVC060 04/03 A2930 RMK AO2
                 PRESFR T00440028 =
2017-11-18 22:53 METAR KPBG 190353Z AUTO 15012KT 10SM BKN022 OVC060 04/02 A2932 RMK AO2 RAE43
                 PRESFR SLP929 P0000 T00390022 =
2017-11-18 22:14 METAR KPBG 190314Z AUTO 17011KT 10SM -RA BKN024 OVC037 03/02 A2936 RMK AO2 P0000
                 T00330017 =
2017-11-18 21:53 METAR KPBG 190253Z AUTO 17011KT 10SM -RA BKN036 OVC080 03/02 A2937 RMK AO2
                 SLP946 P0006 60012 T00330017 58041 =
2017-11-18 20:53 METAR KPBG 190153Z AUTO 16009KT 6SM RA BR BKN033 OVC040 03/01 A2942 RMK AO2
                 RAB21 SLP964 P0006 T00330011 =
2017-11-18 19:53 METAR KPBG 190053Z AUTO 18008KT 10SM OVC046 05/M02 A2944 RMK AO2 SLP973
                 T00501017 =
2017-11-18 18:53 METAR KPBG 182353Z AUTO 17008KT 10SM OVC045 04/M03 A2949 RMK AO2 RAB20E35 SLP988
                 P0000 60000 T00391028 10039 20017 58021 =
2017-11-18 17:53 METAR KPBG 182253Z AUTO 16006KT 10SM OVC047 04/M03 A2951 RMK AO2 RAB00E14 SLP998
                 P0000 T00391028 =
2017-11-18 16:53 METAR KPBG 182153Z AUTO 16004KT 10SM OVC050 03/M04 A2953 RMK AO2 RAB22E36 SLP003
                 P0000 T00331044 =
2017-11-18 15:53 METAR KPBG 182053Z AUTO 16004KT 10SM OVC050 03/M06 A2955 RMK AO2 SLP010
                 T00331061 56033 =
2017-11-18 14:53 METAR KPBG 181953Z AUTO 20004KT 10SM OVC075 03/M06 A2956 RMK AO2 SLP012
                 T00281061 =
2017-11-18 13:53 METAR KPBG 181853Z AUTO 17006KT 10SM BKN080 OVC095 02/M06 A2959 RMK AO2 SLP024
                 T00221061 =
2017-11-18 12:53 METAR KPBG 181753Z AUTO 16004KT 10SM BKN070 OVC090 02/M07 A2965 RMK AO2 PRESFR
                 SLP044 T00171072 10017 21039 56040 =
2017-11-18 11:53 METAR KPBG 181653Z AUTO 23004KT 10SM OVC110 01/M07 A2968 RMK AO2 SLP055
                 T00111067 =
2017-11-18 10:53 METAR KPBG 181553Z AUTO VRB05KT 10SM SCT120 01/M07 A2972 RMK AO2 SLP069
                 T00061067 =
2017-11-18 09:53 METAR KPBG 181453Z AUTO 16007KT 10SM CLR 00/M06 A2977 RMK AO2 SLP084 T00001061
                 58041 =

Support USWX by starting your Amazon purchase here.